Terminal Aerodrome Forecast
Issued by NWS

Home | Current Version | Previous Version | Text Only | Print | Product List | Glossary On
Versions: 1 2 3 4 5 6 7 8 9 10 11 12 13 14 15 16 17 18 19
000
FTUS41 KBTV 010336 AAB
TAFMSS
TAF AMD
KMSS 010336Z 0104/0124 32005KT P6SM BKN060
     FM010600 30005KT P6SM SCT050
     FM011100 31004KT P6SM SCT200
     FM011900 32008KT P6SM SCT060
     FM012000 32008KT P6SM BKN080=

USA.gov is the U.S. government's official web portal to all federal, state and local government web resources and services.